createdAt,value
2022-09-15T00:01:12.678Z,82.46
2022-09-15T00:03:40.451Z,82.57
2022-09-15T00:06:08.835Z,82.61
2022-09-15T00:08:36.757Z,82.71
2022-09-15T00:11:17.695Z,82.89
2022-09-15T00:13:45.020Z,83.04
2022-09-15T00:16:15.157Z,83.26
2022-09-15T00:18:44.067Z,83.08
2022-09-15T00:21:19.089Z,83.39
2022-09-15T00:23:47.558Z,83.45
2022-09-15T00:26:19.127Z,83.32
2022-09-15T00:28:46.715Z,83.26
2022-09-15T00:31:18.154Z,83.54
2022-09-15T00:33:53.991Z,83.39
2022-09-15T00:36:22.809Z,83.56
2022-09-15T00:38:50.174Z,83.60
2022-09-15T00:41:20.041Z,83.66
2022-09-15T00:43:57.453Z,83.69
2022-09-15T00:46:39.093Z,83.56
2022-09-15T00:49:11.861Z,83.63
2022-09-15T00:51:48.388Z,83.75
2022-09-15T00:54:29.114Z,83.60
2022-09-15T00:57:02.894Z,83.60
2022-09-15T01:02:29.459Z,83.64
2022-09-15T01:05:00.020Z,83.50
2022-09-15T01:08:19.037Z,83.67
2022-09-15T01:10:46.818Z,83.69
2022-09-15T01:13:15.171Z,83.49
2022-09-15T01:19:46.758Z,84.21
2022-09-15T01:22:40.395Z,83.96
2022-09-15T01:25:49.571Z,84.25
2022-09-15T01:28:34.807Z,84.38
2022-09-15T01:31:35.219Z,84.55
2022-09-15T01:34:18.586Z,84.71
2022-09-15T01:36:52.038Z,84.64
2022-09-15T01:39:31.955Z,84.84
2022-09-15T01:42:11.013Z,84.86
2022-09-15T01:44:48.276Z,84.77
2022-09-15T01:47:18.622Z,84.97
2022-09-15T01:49:59.342Z,84.78
2022-09-15T01:52:28.115Z,84.91
2022-09-15T01:55:11.294Z,84.88
2022-09-15T01:57:38.394Z,85.00
2022-09-15T02:00:06.149Z,85.07
2022-09-15T02:02:39.478Z,84.85
2022-09-15T02:05:35.064Z,84.98
2022-09-15T02:08:25.398Z,84.95
2022-09-15T02:11:07.830Z,84.87
2022-09-15T02:14:17.278Z,84.94
2022-09-15T02:16:50.031Z,85.03
2022-09-15T02:19:41.772Z,84.73
2022-09-15T02:22:29.310Z,84.60
2022-09-15T02:25:14.445Z,84.86
2022-09-15T02:27:47.954Z,84.90
2022-09-15T02:30:20.263Z,84.64
2022-09-15T02:33:09.498Z,85.03
2022-09-15T02:35:37.237Z,84.68
2022-09-15T02:38:09.183Z,84.92
2022-09-15T02:40:39.610Z,84.74
2022-09-15T02:43:13.866Z,84.80
2022-09-15T02:45:41.252Z,84.36
2022-09-15T02:48:11.761Z,84.49
2022-09-15T02:50:39.681Z,84.57
2022-09-15T02:53:06.700Z,84.72
2022-09-15T02:55:34.348Z,84.59
2022-09-15T02:58:01.522Z,84.40
2022-09-15T03:00:29.527Z,84.74
2022-09-15T03:02:56.816Z,84.37
2022-09-15T03:05:28.124Z,84.54
2022-09-15T03:07:56.163Z,84.56
2022-09-15T03:10:25.575Z,84.23
2022-09-15T03:12:54.894Z,84.42
2022-09-15T03:15:25.665Z,84.52
2022-09-15T03:17:53.660Z,84.30
2022-09-15T03:20:27.992Z,84.76
2022-09-15T03:22:55.310Z,84.58
2022-09-15T03:25:23.506Z,84.34
2022-09-15T03:27:50.546Z,84.62
2022-09-15T03:30:17.942Z,84.56
2022-09-15T03:32:44.884Z,84.58
2022-09-15T03:35:11.879Z,84.64
2022-09-15T03:37:38.999Z,84.76
2022-09-15T03:40:07.140Z,84.48
2022-09-15T03:42:34.156Z,84.55
2022-09-15T03:45:01.619Z,84.74
2022-09-15T03:47:28.911Z,84.49
2022-09-15T03:49:55.871Z,84.47
2022-09-15T03:52:22.838Z,84.95
2022-09-15T03:54:50.041Z,84.61
2022-09-15T03:57:17.080Z,84.87
2022-09-15T03:59:44.227Z,84.82
2022-09-15T04:02:11.325Z,85.24
2022-09-15T04:04:38.422Z,85.18
2022-09-15T04:07:05.588Z,84.75
2022-09-15T04:09:32.648Z,85.07
2022-09-15T04:11:59.713Z,85.02
2022-09-15T04:14:26.767Z,85.28
2022-09-15T04:16:53.881Z,85.23
2022-09-15T04:19:20.880Z,84.90
2022-09-15T04:21:48.224Z,85.17
2022-09-15T04:24:15.734Z,85.04
2022-09-15T04:26:42.865Z,85.14
2022-09-15T04:29:16.484Z,85.27
2022-09-15T04:31:43.946Z,85.00
2022-09-15T04:34:11.276Z,85.18
2022-09-15T04:36:38.789Z,85.32
2022-09-15T04:39:06.828Z,85.63
2022-09-15T04:41:33.924Z,85.62
2022-09-15T04:44:02.180Z,85.48
2022-09-15T04:46:29.168Z,85.40
2022-09-15T04:48:56.859Z,85.06
2022-09-15T04:51:24.458Z,85.31
2022-09-15T04:53:52.177Z,85.08
2022-09-15T04:56:25.795Z,85.15
2022-09-15T04:59:03.569Z,85.17
2022-09-15T05:01:34.369Z,84.56
2022-09-15T05:04:04.151Z,85.10
2022-09-15T05:06:31.722Z,85.08
2022-09-15T05:08:59.049Z,84.67
2022-09-15T05:11:27.187Z,84.90
2022-09-15T05:13:54.767Z,84.82
2022-09-15T05:16:24.899Z,84.72
2022-09-15T05:18:55.727Z,84.84
2022-09-15T05:21:23.738Z,84.62
2022-09-15T05:23:52.069Z,84.90
2022-09-15T05:26:25.963Z,85.03
2022-09-15T05:28:53.584Z,85.04
2022-09-15T05:31:28.042Z,85.22
2022-09-15T05:33:55.368Z,83.57
2022-09-15T05:36:25.408Z,80.52
2022-09-15T05:38:58.984Z,77.01
2022-09-15T05:41:28.266Z,73.34
2022-09-15T05:43:57.595Z,70.93
2022-09-15T05:46:29.296Z,69.34
2022-09-15T05:48:58.529Z,68.27
2022-09-15T05:51:26.028Z,67.66
2022-09-15T05:53:53.163Z,67.57
2022-09-15T05:56:20.667Z,67.55
2022-09-15T05:58:49.060Z,67.52
2022-09-15T06:01:21.369Z,67.83
2022-09-15T06:03:48.765Z,68.06
2022-09-15T06:06:16.575Z,68.34
2022-09-15T06:08:51.750Z,68.60
2022-09-15T06:11:24.385Z,69.13
2022-09-15T06:13:51.620Z,69.18
2022-09-15T06:16:22.293Z,69.29
2022-09-15T06:18:51.691Z,69.61
2022-09-15T06:21:22.320Z,69.69
2022-09-15T06:24:00.403Z,70.10
2022-09-15T06:26:28.952Z,69.86
2022-09-15T06:28:59.680Z,70.16
2022-09-15T06:31:29.884Z,70.42
2022-09-15T06:33:57.748Z,70.13
2022-09-15T06:36:28.511Z,70.14
2022-09-15T06:38:56.372Z,70.65
2022-09-15T06:41:23.762Z,70.63
2022-09-15T06:43:50.985Z,70.78
2022-09-15T06:46:21.778Z,70.65
2022-09-15T06:48:51.230Z,70.60
2022-09-15T06:51:22.450Z,70.73
2022-09-15T06:53:50.147Z,70.58
2022-09-15T06:56:22.801Z,70.31
2022-09-15T06:58:50.333Z,70.57
2022-09-15T07:01:25.330Z,70.37
2022-09-15T07:03:52.805Z,70.42
2022-09-15T07:06:20.711Z,70.45
2022-09-15T07:08:48.537Z,70.10
2022-09-15T07:11:17.370Z,70.12
2022-09-15T07:13:44.731Z,70.36
2022-09-15T07:16:14.483Z,70.07
2022-09-15T07:18:43.712Z,70.23
2022-09-15T07:21:17.438Z,70.16
2022-09-15T07:23:44.873Z,69.96
2022-09-15T07:26:19.560Z,69.88
2022-09-15T07:28:50.483Z,70.04
2022-09-15T07:31:20.819Z,69.66
2022-09-15T07:33:48.621Z,69.38
2022-09-15T07:36:16.122Z,69.32
2022-09-15T07:38:46.621Z,69.13
2022-09-15T07:41:19.113Z,69.45
2022-09-15T07:43:54.529Z,68.63
2022-09-15T07:46:24.502Z,69.00
2022-09-15T07:48:56.421Z,69.03
2022-09-15T07:51:25.532Z,69.28
2022-09-15T07:53:53.686Z,69.42
2022-09-15T07:56:22.138Z,69.14
2022-09-15T07:58:50.235Z,69.06
2022-09-15T08:01:19.211Z,69.07
2022-09-15T08:03:49.477Z,69.20
2022-09-15T08:06:22.730Z,69.17
2022-09-15T08:08:52.428Z,68.95
2022-09-15T08:11:22.362Z,68.30
2022-09-15T08:13:52.438Z,68.52
2022-09-15T08:16:23.299Z,68.37
2022-09-15T08:18:53.516Z,67.77
2022-09-15T08:21:22.233Z,67.96
2022-09-15T08:23:58.525Z,68.07
2022-09-15T08:26:27.336Z,67.53
2022-09-15T08:28:54.528Z,67.22
2022-09-15T08:31:24.287Z,67.39
2022-09-15T08:33:54.268Z,67.60
2022-09-15T08:36:21.958Z,67.14
2022-09-15T08:38:49.236Z,67.59
2022-09-15T08:41:24.009Z,67.15
2022-09-15T08:43:56.305Z,67.99
2022-09-15T08:46:37.333Z,67.32
2022-09-15T08:49:35.549Z,67.22
2022-09-15T08:52:15.615Z,66.63
2022-09-15T08:54:42.648Z,66.91
2022-09-15T08:57:19.155Z,67.19
2022-09-15T08:59:46.930Z,67.20
2022-09-15T09:02:31.611Z,66.96
2022-09-15T09:05:29.366Z,66.89
2022-09-15T09:08:29.277Z,67.00
2022-09-15T09:11:37.412Z,66.81
2022-09-15T09:14:25.187Z,66.51
2022-09-15T09:17:44.852Z,67.26
2022-09-15T09:20:57.291Z,67.44
2022-09-15T09:23:31.776Z,66.60
2022-09-15T09:26:01.980Z,66.78
2022-09-15T09:28:42.345Z,66.72
2022-09-15T09:31:20.179Z,67.49
2022-09-15T09:33:58.127Z,67.46
2022-09-15T09:36:26.512Z,67.39
2022-09-15T09:38:55.281Z,67.48
2022-09-15T09:41:35.795Z,67.49
2022-09-15T09:44:14.088Z,67.26
2022-09-15T09:46:42.363Z,67.56
2022-09-15T09:49:18.696Z,67.90
2022-09-15T09:52:00.173Z,68.05
2022-09-15T09:54:31.236Z,67.93
2022-09-15T09:57:26.995Z,68.44
2022-09-15T09:59:54.648Z,68.43
2022-09-15T10:02:28.830Z,68.20
2022-09-15T10:05:18.729Z,68.54
2022-09-15T10:07:46.451Z,68.55
2022-09-15T10:10:32.421Z,68.30
2022-09-15T10:13:03.452Z,68.11
2022-09-15T10:15:40.594Z,68.39
2022-09-15T10:18:25.472Z,68.28
2022-09-15T10:20:52.530Z,67.44
2022-09-15T10:23:21.607Z,67.59
2022-09-15T10:25:59.629Z,66.26
2022-09-15T10:28:28.468Z,66.27
2022-09-15T10:31:16.039Z,64.90
2022-09-15T10:33:47.751Z,64.75
2022-09-15T10:36:28.262Z,64.73
2022-09-15T10:39:00.429Z,64.39
2022-09-15T10:41:32.765Z,64.58
2022-09-15T10:44:42.326Z,65.14
2022-09-15T10:47:42.752Z,65.87
2022-09-15T10:50:30.965Z,66.03
2022-09-15T10:53:06.728Z,66.35
2022-09-15T10:56:08.814Z,66.15
2022-09-15T10:59:03.445Z,65.95
2022-09-15T11:01:30.270Z,65.99
2022-09-15T11:04:42.952Z,65.91
2022-09-15T11:07:34.136Z,65.88
2022-09-15T11:10:39.414Z,64.88
2022-09-15T11:13:25.615Z,64.90
2022-09-15T11:15:57.745Z,65.38
2022-09-15T11:19:04.447Z,63.68
2022-09-15T11:21:50.419Z,62.50
2022-09-15T11:24:44.436Z,61.97
2022-09-15T11:27:28.205Z,61.52
2022-09-15T11:30:20.267Z,61.73
2022-09-15T11:32:59.451Z,62.21
2022-09-15T11:35:44.418Z,62.12
2022-09-15T11:38:32.106Z,59.47
2022-09-15T11:41:41.550Z,60.23
2022-09-15T11:44:32.484Z,60.13
2022-09-15T11:47:05.193Z,59.95
2022-09-15T11:49:41.136Z,60.75
2022-09-15T11:52:42.667Z,60.04
2022-09-15T11:55:20.141Z,60.99
2022-09-15T11:58:33.954Z,60.27
2022-09-15T12:01:12.858Z,59.50
2022-09-15T12:03:50.685Z,60.06
2022-09-15T12:06:27.302Z,60.32
2022-09-15T12:09:00.849Z,61.55
2022-09-15T12:11:31.821Z,61.23
2022-09-15T12:13:59.986Z,60.50
2022-09-15T12:16:28.172Z,61.65
2022-09-15T12:19:06.978Z,61.61
2022-09-15T12:21:39.437Z,60.53
2022-09-15T12:24:38.095Z,59.64
2022-09-15T12:27:05.339Z,59.21
2022-09-15T12:29:42.109Z,59.75
2022-09-15T12:32:25.351Z,60.61
2022-09-15T12:34:56.345Z,61.29
2022-09-15T12:37:24.578Z,61.42
2022-09-15T12:39:53.955Z,60.70
2022-09-15T12:42:33.267Z,58.32
2022-09-15T12:45:06.155Z,53.09
2022-09-15T12:47:41.458Z,52.02
2022-09-15T12:50:17.360Z,50.50
2022-09-15T12:52:53.468Z,50.67
2022-09-15T12:55:27.226Z,51.38
2022-09-15T12:58:09.727Z,52.70
2022-09-15T13:01:06.707Z,52.57
2022-09-15T13:06:28.939Z,48.55
2022-09-15T13:09:01.783Z,47.70
2022-09-15T13:11:37.009Z,46.90
2022-09-15T13:14:04.199Z,47.82
2022-09-15T13:16:52.854Z,47.91
2022-09-15T13:19:41.314Z,46.29
2022-09-15T13:22:51.748Z,46.30
2022-09-15T13:25:30.445Z,46.37
2022-09-15T13:28:03.487Z,45.63
2022-09-15T13:30:39.736Z,45.48
2022-09-15T13:40:14.978Z,45.62
2022-09-15T13:43:21.490Z,45.92
2022-09-15T13:46:19.799Z,45.24
2022-09-15T13:49:01.848Z,45.83
2022-09-15T13:51:31.549Z,45.07
2022-09-15T13:54:19.163Z,44.99
2022-09-15T13:56:47.513Z,45.50
2022-09-15T13:59:28.471Z,45.93
2022-09-15T14:01:56.966Z,45.62
2022-09-15T14:04:32.078Z,46.12
2022-09-15T14:07:01.844Z,46.24
2022-09-15T14:09:41.259Z,46.28
2022-09-15T14:12:13.475Z,46.31
2022-09-15T14:14:53.821Z,47.18
2022-09-15T14:17:26.481Z,46.00
2022-09-15T14:19:59.774Z,46.67
2022-09-15T14:22:34.797Z,47.05
2022-09-15T14:25:19.208Z,46.96
2022-09-15T14:27:50.019Z,47.85
2022-09-15T14:30:32.066Z,48.32
2022-09-15T14:33:02.169Z,48.64
2022-09-15T14:35:36.383Z,48.41
2022-09-15T14:38:03.707Z,48.37
2022-09-15T14:40:38.060Z,47.43
2022-09-15T14:43:42.023Z,48.07
2022-09-15T14:46:15.469Z,48.81
2022-09-15T14:48:42.469Z,48.79
2022-09-15T14:51:25.955Z,49.24
2022-09-15T14:53:58.623Z,49.53
2022-09-15T14:56:32.960Z,49.43
2022-09-15T14:59:15.239Z,49.19
2022-09-15T15:01:57.181Z,50.39
2022-09-15T15:04:42.285Z,58.85
2022-09-15T15:07:16.155Z,60.47
2022-09-15T15:09:57.845Z,61.42
2022-09-15T15:12:41.972Z,61.30
2022-09-15T15:15:13.509Z,59.33
2022-09-15T15:17:49.329Z,59.91
2022-09-15T15:20:27.121Z,59.92
2022-09-15T15:23:19.945Z,59.37
2022-09-15T15:25:47.139Z,58.83
2022-09-15T15:28:34.579Z,59.34
2022-09-15T15:31:23.066Z,59.71
2022-09-15T15:33:59.658Z,59.58
2022-09-15T15:36:29.406Z,59.58
2022-09-15T15:39:04.367Z,60.07
2022-09-15T15:41:40.999Z,57.97
2022-09-15T15:44:13.967Z,57.03
2022-09-15T15:47:01.487Z,56.56
2022-09-15T15:49:32.766Z,56.04
2022-09-15T15:52:00.987Z,56.00
2022-09-15T15:54:28.563Z,56.05
2022-09-15T15:57:04.526Z,56.25
2022-09-15T15:59:32.169Z,56.86
2022-09-15T16:01:59.283Z,56.57
2022-09-15T16:04:26.397Z,55.66
2022-09-15T16:06:53.528Z,56.32
2022-09-15T16:09:20.915Z,55.40
2022-09-15T16:11:48.065Z,54.94
2022-09-15T16:14:15.205Z,54.84
2022-09-15T16:16:42.336Z,55.08
2022-09-15T16:19:09.769Z,55.63
2022-09-15T16:21:42.449Z,56.05
2022-09-15T16:24:15.273Z,55.94
2022-09-15T16:26:43.276Z,56.36
2022-09-15T16:29:11.196Z,56.05
2022-09-15T16:31:38.914Z,56.98
2022-09-15T16:34:06.202Z,56.65
2022-09-15T16:36:36.411Z,57.05
2022-09-15T16:39:03.891Z,57.00
2022-09-15T16:41:31.797Z,57.41
2022-09-15T16:44:02.592Z,57.40
2022-09-15T16:46:29.839Z,57.73
2022-09-15T16:48:57.203Z,58.06
2022-09-15T16:51:29.954Z,58.31
2022-09-15T16:53:58.736Z,58.68
2022-09-15T16:56:27.015Z,58.86
2022-09-15T16:58:59.828Z,59.50
2022-09-15T17:01:27.506Z,59.64
2022-09-15T17:03:54.620Z,59.83
2022-09-15T17:06:22.310Z,60.22
2022-09-15T17:08:49.766Z,60.34
2022-09-15T17:11:19.741Z,60.32
2022-09-15T17:13:47.682Z,60.65
2022-09-15T17:16:19.506Z,60.74
2022-09-15T17:18:47.050Z,61.17
2022-09-15T17:21:18.062Z,60.70
2022-09-15T17:23:48.235Z,61.02
2022-09-15T17:26:24.684Z,61.23
2022-09-15T17:28:55.512Z,60.99
2022-09-15T17:31:24.915Z,61.27
2022-09-15T17:33:53.579Z,61.52
2022-09-15T17:36:20.770Z,61.28
2022-09-15T17:38:50.829Z,61.27
2022-09-15T17:41:20.791Z,62.48
2022-09-15T17:43:47.916Z,62.89
2022-09-15T17:46:15.765Z,62.75
2022-09-15T17:48:42.966Z,63.33
2022-09-15T17:51:17.520Z,63.27
2022-09-15T17:53:46.835Z,63.23
2022-09-15T17:56:14.109Z,63.28
2022-09-15T17:58:41.874Z,63.42
2022-09-15T18:01:14.690Z,63.36
2022-09-15T18:03:45.125Z,62.92
2022-09-15T18:06:12.998Z,62.84
2022-09-15T18:08:40.251Z,62.97
2022-09-15T18:11:07.430Z,63.08
2022-09-15T18:13:34.419Z,62.90
2022-09-15T18:16:06.812Z,62.97
2022-09-15T18:18:34.216Z,62.93
2022-09-15T18:21:01.463Z,63.04
2022-09-15T18:23:29.663Z,62.73
2022-09-15T18:25:57.630Z,62.52
2022-09-15T18:28:24.709Z,62.84
2022-09-15T18:30:52.214Z,62.99
2022-09-15T18:33:25.412Z,63.03
2022-09-15T18:35:56.462Z,63.17
2022-09-15T18:38:24.169Z,63.31
2022-09-15T18:40:55.413Z,63.65
2022-09-15T18:43:26.371Z,63.81
2022-09-15T18:46:00.752Z,63.91
2022-09-15T18:48:28.832Z,64.13
2022-09-15T18:50:56.073Z,64.36
2022-09-15T18:53:23.443Z,64.71
2022-09-15T18:55:50.653Z,64.73
2022-09-15T18:58:19.241Z,64.76
2022-09-15T19:00:46.575Z,65.05
2022-09-15T19:03:14.353Z,65.06
2022-09-15T19:05:42.016Z,65.28
2022-09-15T19:08:09.376Z,65.45
2022-09-15T19:10:38.332Z,65.45
2022-09-15T19:13:05.627Z,65.36
2022-09-15T19:15:34.677Z,65.71
2022-09-15T19:18:02.134Z,65.92
2022-09-15T19:20:29.420Z,66.05
2022-09-15T19:22:58.149Z,66.18
2022-09-15T19:25:25.393Z,66.41
2022-09-15T19:27:52.432Z,66.89
2022-09-15T19:30:19.529Z,66.87
2022-09-15T19:32:46.697Z,66.64
2022-09-15T19:35:14.150Z,66.71
2022-09-15T19:37:43.240Z,67.04
2022-09-15T19:40:14.835Z,67.33
2022-09-15T19:42:44.018Z,67.26
2022-09-15T19:45:12.707Z,67.51
2022-09-15T19:47:40.699Z,67.14
2022-09-15T19:50:11.214Z,67.48
2022-09-15T19:52:38.505Z,67.31
2022-09-15T19:55:08.122Z,67.18
2022-09-15T19:57:38.691Z,66.75
2022-09-15T20:00:07.787Z,66.65
2022-09-15T20:02:34.948Z,66.75
2022-09-15T20:07:48.072Z,66.99
2022-09-15T20:10:16.442Z,67.39
2022-09-15T20:12:43.575Z,67.60
2022-09-15T20:15:10.940Z,68.14
2022-09-15T20:17:41.708Z,68.14
2022-09-15T20:20:11.542Z,68.22
2022-09-15T20:22:38.677Z,68.37
2022-09-15T20:25:06.035Z,68.46
2022-09-15T20:27:33.205Z,68.34
2022-09-15T20:30:00.345Z,68.50
2022-09-15T20:32:29.316Z,68.62
2022-09-15T20:34:56.360Z,68.43
2022-09-15T20:37:23.434Z,68.12
2022-09-15T20:39:51.485Z,68.21
2022-09-15T20:42:18.837Z,68.17
2022-09-15T20:44:45.879Z,68.37
2022-09-15T20:47:12.973Z,68.42
2022-09-15T20:49:40.039Z,68.33
2022-09-15T20:52:07.054Z,68.24
2022-09-15T20:54:34.507Z,68.81
2022-09-15T20:57:01.710Z,68.78
2022-09-15T20:59:28.708Z,68.63
2022-09-15T21:01:55.837Z,68.50
2022-09-15T21:04:22.898Z,68.96
2022-09-15T21:06:50.228Z,69.17
2022-09-15T21:09:17.238Z,69.71
2022-09-15T21:11:44.337Z,69.97
2022-09-15T21:14:15.323Z,69.70
2022-09-15T21:16:42.451Z,70.07
2022-09-15T21:19:09.935Z,70.45
2022-09-15T21:21:37.000Z,70.60
2022-09-15T21:24:07.715Z,71.08
2022-09-15T21:26:57.374Z,71.41
2022-09-15T21:29:24.586Z,71.68
2022-09-15T21:31:51.802Z,72.05
2022-09-15T21:34:20.232Z,71.75
2022-09-15T21:36:47.354Z,71.77
2022-09-15T21:39:14.335Z,72.33
2022-09-15T21:41:41.560Z,72.34
2022-09-15T21:44:09.816Z,72.30
2022-09-15T21:46:36.814Z,72.08
2022-09-15T21:49:04.068Z,72.21
2022-09-15T21:51:31.222Z,72.20
2022-09-15T21:53:59.350Z,72.38
2022-09-15T21:56:28.459Z,72.44
2022-09-15T21:58:55.762Z,72.54
2022-09-15T22:01:26.733Z,72.29
2022-09-15T22:03:57.360Z,72.68
2022-09-15T22:06:30.159Z,72.71
2022-09-15T22:08:58.198Z,72.60
2022-09-15T22:11:25.485Z,72.62
2022-09-15T22:13:52.713Z,72.90
2022-09-15T22:16:22.398Z,72.88
2022-09-15T22:18:50.754Z,72.91
2022-09-15T22:21:20.607Z,72.83
2022-09-15T22:23:49.392Z,73.01
2022-09-15T22:26:33.317Z,72.71
2022-09-15T22:29:00.649Z,73.19
2022-09-15T22:31:29.079Z,72.97
2022-09-15T22:33:56.700Z,72.97
2022-09-15T22:36:29.196Z,73.20
2022-09-15T22:39:05.012Z,72.58
2022-09-15T22:41:36.720Z,72.35
2022-09-15T22:44:05.266Z,71.97
2022-09-15T22:46:32.735Z,72.50
2022-09-15T22:49:00.081Z,72.09
2022-09-15T22:51:27.101Z,72.21
2022-09-15T22:53:56.726Z,71.90
2022-09-15T22:56:26.032Z,72.10
2022-09-15T22:58:53.344Z,71.81
2022-09-15T23:01:24.942Z,71.69
2022-09-15T23:03:55.733Z,70.87
2022-09-15T23:06:24.685Z,70.74
2022-09-15T23:08:57.514Z,70.59
2022-09-15T23:11:26.964Z,70.55
2022-09-15T23:13:55.478Z,70.58
2022-09-15T23:16:24.647Z,70.61
2022-09-15T23:18:52.932Z,70.99
2022-09-15T23:21:20.770Z,70.88
2022-09-15T23:23:49.260Z,71.39
2022-09-15T23:26:23.977Z,71.46
2022-09-15T23:28:51.139Z,71.28
2022-09-15T23:31:19.445Z,71.29
2022-09-15T23:33:47.447Z,71.48
2022-09-15T23:36:19.640Z,71.94
2022-09-15T23:38:48.282Z,71.61
2022-09-15T23:41:17.315Z,71.69
2022-09-15T23:43:45.402Z,71.87
2022-09-15T23:46:12.996Z,71.68
2022-09-15T23:48:40.052Z,71.73
2022-09-15T23:51:07.036Z,71.89
2022-09-15T23:53:35.171Z,71.82
2022-09-15T23:56:02.779Z,72.36
2022-09-15T23:58:32.549Z,72.27
